Time;durP1;ratioP1;P1;durP2;ratioP2;P2;SDS_P1;SDS_P2;PMS_P1;PMS_P2;Temp;Humidity;BMP_temperature;BMP_pressure;BME280_temperature;BME280_humidity;BME280_pressure;Samples;Min_cycle;Max_cycle;Signal;HPM_P1;HPM_P2
2021/09/27 00:01:48;;;;;;;12.60;10.10;;;;;;;;;;5052868;28;20424;-78
2021/09/27 00:04:14;;;;;;;10.47;9.27;;;;;;;;;;5035805;28;20801;-77
2021/09/27 00:06:40;;;;;;;11.83;10.27;;;;;;;;;;5053220;28;20415;-77
2021/09/27 00:09:06;;;;;;;12.27;9.50;;;;;;;;;;5052966;28;20408;-77
2021/09/27 00:11:32;;;;;;;12.00;10.67;;;;;;;;;;5034943;28;20564;-78
2021/09/27 00:14:00;;;;;;;14.00;10.07;;;;;;;;;;5053015;28;20478;-77
2021/09/27 00:16:27;;;;;;;16.80;10.50;;;;;;;;;;5053082;28;20404;-77
2021/09/27 00:18:53;;;;;;;12.67;10.53;;;;;;;;;;5055289;28;20412;-78
2021/09/27 00:21:24;;;;;;;14.70;10.60;;;;;;;;;;5052921;28;20379;-77
2021/09/27 00:23:50;;;;;;;12.77;11.03;;;;;;;;;;5035156;28;20446;-77
2021/09/27 00:26:17;;;;;;;11.40;10.30;;;;;;;;;;5035355;28;20811;-77
2021/09/27 00:28:43;;;;;;;12.50;9.30;;;;;;;;;;5052992;28;20410;-77
2021/09/27 00:31:09;;;;;;;12.37;9.63;;;;;;;;;;5034626;28;20897;-77
2021/09/27 00:33:35;;;;;;;12.13;9.70;;;;;;;;;;5052798;28;20443;-77
2021/09/27 00:36:01;;;;;;;11.60;10.40;;;;;;;;;;5052840;28;20390;-77
2021/09/27 00:38:28;;;;;;;14.23;9.93;;;;;;;;;;5052765;28;20779;-77
2021/09/27 00:40:58;;;;;;;10.50;9.23;;;;;;;;;;5052689;28;20415;-77
2021/09/27 00:43:25;;;;;;;11.07;9.43;;;;;;;;;;5052274;28;20420;-78
2021/09/27 00:45:53;;;;;;;14.10;11.20;;;;;;;;;;5052721;28;20777;-77
2021/09/27 00:48:19;;;;;;;10.57;9.50;;;;;;;;;;5053592;28;20490;-77
2021/09/27 00:50:48;;;;;;;14.47;9.90;;;;;;;;;;5056537;28;20469;-77
2021/09/27 00:53:29;;;;;;;12.70;10.37;;;;;;;;;;5038043;28;20901;-77
2021/09/27 00:55:55;;;;;;;11.47;10.27;;;;;;;;;;5056609;28;20541;-78
2021/09/27 00:58:22;;;;;;;11.87;9.80;;;;;;;;;;5056633;28;20875;-77
2021/09/27 01:00:48;;;;;;;10.47;9.33;;;;;;;;;;5038607;28;20416;-77
2021/09/27 01:03:14;;;;;;;11.70;9.60;;;;;;;;;;5056025;28;20431;-78
2021/09/27 01:05:43;;;;;;;11.30;10.07;;;;;;;;;;5056465;28;20493;-77
2021/09/27 01:08:30;;;;;;;13.70;10.63;;;;;;;;;;5039627;28;20424;-78
2021/09/27 01:11:07;;;;;;;10.50;9.00;;;;;;;;;;5018036;28;20501;-78
2021/09/27 01:13:43;;;;;;;16.27;10.00;;;;;;;;;;5038258;28;20440;-78
2021/09/27 01:16:09;;;;;;;10.33;9.30;;;;;;;;;;5056662;28;20879;-77
2021/09/27 01:18:47;;;;;;;10.53;8.97;;;;;;;;;;5056368;28;20408;-77
2021/09/27 01:21:18;;;;;;;11.00;9.83;;;;;;;;;;5055780;28;20412;-78
2021/09/27 01:24:03;;;;;;;11.63;10.23;;;;;;;;;;5056027;28;20412;-77
2021/09/27 01:26:35;;;;;;;12.27;9.93;;;;;;;;;;5056002;28;20404;-77
2021/09/27 01:29:01;;;;;;;10.70;9.60;;;;;;;;;;5055826;28;20969;-77
2021/09/27 01:31:26;;;;;;;11.10;9.73;;;;;;;;;;5055383;28;20460;-77
2021/09/27 01:33:52;;;;;;;12.80;9.87;;;;;;;;;;5055792;28;20408;-77
2021/09/27 01:36:34;;;;;;;12.40;10.10;;;;;;;;;;5055947;28;20431;-77
2021/09/27 01:39:18;;;;;;;12.63;9.53;;;;;;;;;;5055799;28;20511;-78
2021/09/27 01:42:10;;;;;;;11.77;9.90;;;;;;;;;;5055104;28;20454;-77
2021/09/27 01:44:40;;;;;;;12.53;10.17;;;;;;;;;;5035735;28;20412;-78
2021/09/27 01:47:14;;;;;;;11.93;9.80;;;;;;;;;;5055531;28;20439;-76
2021/09/27 01:49:46;;;;;;;10.63;9.17;;;;;;;;;;5055471;28;20904;-77
2021/09/27 01:52:27;;;;;;;11.77;9.37;;;;;;;;;;5055093;28;20823;-77
2021/09/27 01:55:01;;;;;;;10.83;9.73;;;;;;;;;;5055387;28;20416;-77
2021/09/27 01:57:30;;;;;;;14.83;10.13;;;;;;;;;;5037814;28;20404;-77
2021/09/27 01:59:59;;;;;;;11.63;10.20;;;;;;;;;;5054013;28;20994;-78
2021/09/27 02:02:37;;;;;;;13.53;9.47;;;;;;;;;;5055103;28;20497;-77
2021/09/27 02:05:06;;;;;;;19.13;9.50;;;;;;;;;;5055249;28;20389;-77
2021/09/27 02:07:36;;;;;;;13.23;10.03;;;;;;;;;;5055296;28;20416;-77
2021/09/27 02:10:09;;;;;;;13.60;9.83;;;;;;;;;;5055089;28;20451;-78
2021/09/27 02:12:38;;;;;;;12.87;10.47;;;;;;;;;;5054763;28;20499;-77
2021/09/27 02:15:10;;;;;;;10.93;9.87;;;;;;;;;;5055162;28;20412;-77
2021/09/27 02:17:45;;;;;;;13.40;10.10;;;;;;;;;;5054968;28;20427;-77
2021/09/27 02:20:11;;;;;;;13.37;10.47;;;;;;;;;;5054929;28;20822;-76
2021/09/27 02:22:37;;;;;;;12.83;10.73;;;;;;;;;;5054652;28;20474;-78
2021/09/27 02:25:09;;;;;;;11.47;10.37;;;;;;;;;;5055074;28;20408;-77
2021/09/27 02:27:35;;;;;;;12.93;10.13;;;;;;;;;;5054941;28;20435;-76
2021/09/27 02:30:01;;;;;;;13.53;9.57;;;;;;;;;;5054745;28;20405;-77
2021/09/27 02:32:37;;;;;;;14.97;10.40;;;;;;;;;;5054312;28;20474;-77
2021/09/27 02:35:16;;;;;;;13.77;10.93;;;;;;;;;;5054676;28;20407;-77
2021/09/27 02:38:02;;;;;;;11.30;10.03;;;;;;;;;;5054653;28;20400;-76
2021/09/27 02:40:38;;;;;;;10.13;9.13;;;;;;;;;;5054430;28;20403;-76
2021/09/27 02:43:07;;;;;;;12.60;10.47;;;;;;;;;;5054113;28;20431;-77
2021/09/27 02:45:34;;;;;;;10.13;9.03;;;;;;;;;;5054441;28;20404;-78
2021/09/27 02:48:10;;;;;;;11.63;10.23;;;;;;;;;;5054405;28;20777;-77
2021/09/27 02:50:36;;;;;;;12.43;10.20;;;;;;;;;;5054411;28;20469;-77
2021/09/27 02:53:02;;;;;;;12.80;10.27;;;;;;;;;;5053687;28;20827;-77
2021/09/27 02:55:51;;;;;;;11.77;9.67;;;;;;;;;;5036345;28;20893;-77
2021/09/27 02:58:44;;;;;;;15.90;11.27;;;;;;;;;;5030889;28;20432;-77
2021/09/27 03:01:10;;;;;;;13.03;9.30;;;;;;;;;;5038142;28;20435;-77
2021/09/27 03:03:54;;;;;;;12.07;9.70;;;;;;;;;;5054162;28;20432;-76
2021/09/27 03:06:35;;;;;;;11.77;9.80;;;;;;;;;;5053986;28;20403;-77
2021/09/27 03:09:01;;;;;;;13.53;10.40;;;;;;;;;;5036188;28;20450;-77
2021/09/27 03:11:33;;;;;;;12.30;10.43;;;;;;;;;;5053181;28;20495;-77
2021/09/27 03:14:05;;;;;;;11.37;10.17;;;;;;;;;;5036331;28;20894;-76
2021/09/27 03:16:37;;;;;;;12.53;11.23;;;;;;;;;;5054016;28;20427;-76
2021/09/27 03:19:22;;;;;;;13.77;10.97;;;;;;;;;;5053970;28;20463;-77
2021/09/27 03:21:57;;;;;;;12.70;11.30;;;;;;;;;;5053514;28;20428;-77
2021/09/27 03:24:23;;;;;;;16.57;10.53;;;;;;;;;;5053883;28;20403;-77
2021/09/27 03:27:07;;;;;;;13.30;9.57;;;;;;;;;;5053730;28;20415;-77
2021/09/27 03:29:33;;;;;;;13.63;9.97;;;;;;;;;;5053695;28;20408;-76
2021/09/27 03:32:09;;;;;;;14.27;10.70;;;;;;;;;;5053074;28;21141;-77
2021/09/27 03:34:54;;;;;;;10.90;9.17;;;;;;;;;;5053522;28;20414;-77
2021/09/27 03:37:26;;;;;;;14.90;10.60;;;;;;;;;;5053756;28;20403;-77
2021/09/27 03:39:52;;;;;;;11.43;10.23;;;;;;;;;;5035719;28;20404;-76
2021/09/27 03:42:25;;;;;;;12.07;9.77;;;;;;;;;;5053084;28;20436;-76
2021/09/27 03:44:56;;;;;;;11.63;10.13;;;;;;;;;;5035391;28;20412;-77
2021/09/27 03:47:57;;;;;;;12.33;11.00;;;;;;;;;;5053348;28;20484;-77
2021/09/27 03:50:36;;;;;;;11.97;10.07;;;;;;;;;;5011599;28;20448;-77
2021/09/27 03:53:05;;;;;;;15.10;10.00;;;;;;;;;;5047818;28;20589;-77
2021/09/27 03:55:38;;;;;;;14.23;10.80;;;;;;;;;;5053205;28;20481;-77
2021/09/27 03:58:07;;;;;;;11.80;10.50;;;;;;;;;;5053178;28;20375;-78
2021/09/27 04:00:34;;;;;;;9.97;8.97;;;;;;;;;;5053200;28;20427;-77
2021/09/27 04:03:08;;;;;;;13.30;11.03;;;;;;;;;;5052613;28;20561;-77
2021/09/27 04:05:40;;;;;;;10.13;9.13;;;;;;;;;;5053222;28;20413;-77
2021/09/27 04:08:21;;;;;;;13.10;11.30;;;;;;;;;;5053338;28;20918;-77
2021/09/27 04:11:05;;;;;;;14.57;10.40;;;;;;;;;;5053033;28;20412;-77
2021/09/27 04:13:31;;;;;;;13.20;10.63;;;;;;;;;;5053251;28;20443;-76
2021/09/27 04:16:17;;;;;;;16.80;11.00;;;;;;;;;;5054102;28;20700;-77
2021/09/27 04:18:48;;;;;;;10.90;9.30;;;;;;;;;;5053795;28;20899;-78
2021/09/27 04:21:18;;;;;;;12.93;10.53;;;;;;;;;;5052541;28;20408;-77
2021/09/27 04:24:03;;;;;;;12.40;10.03;;;;;;;;;;5036732;28;20931;-77
2021/09/27 04:26:49;;;;;;;13.03;9.90;;;;;;;;;;5039402;28;20400;-77
2021/09/27 04:29:22;;;;;;;13.43;11.23;;;;;;;;;;5057001;28;20396;-77
2021/09/27 04:32:03;;;;;;;12.10;10.70;;;;;;;;;;5056864;28;20574;-77
2021/09/27 04:34:38;;;;;;;14.27;10.40;;;;;;;;;;5057278;28;20408;-77
2021/09/27 04:37:04;;;;;;;14.90;10.50;;;;;;;;;;5056941;28;20454;-77
2021/09/27 04:39:36;;;;;;;12.53;11.23;;;;;;;;;;5039056;28;20900;-77
2021/09/27 04:42:13;;;;;;;11.63;9.70;;;;;;;;;;5056331;28;20432;-77
2021/09/27 04:44:57;;;;;;;13.33;10.40;;;;;;;;;;5056790;28;20952;-77
2021/09/27 04:47:29;;;;;;;11.20;9.23;;;;;;;;;;5056621;28;20494;-77
2021/09/27 04:50:04;;;;;;;12.10;9.90;;;;;;;;;;5056829;28;20404;-78
2021/09/27 04:52:33;;;;;;;18.63;10.67;;;;;;;;;;5059730;28;20539;-77
2021/09/27 04:55:03;;;;;;;15.50;11.10;;;;;;;;;;5056665;28;20388;-77
2021/09/27 04:57:31;;;;;;;13.70;10.20;;;;;;;;;;5056529;28;20477;-77
2021/09/27 05:00:03;;;;;;;15.70;9.90;;;;;;;;;;5056521;28;20400;-77
2021/09/27 05:02:42;;;;;;;13.23;11.27;;;;;;;;;;5056213;28;20534;-77
2021/09/27 05:05:13;;;;;;;11.77;10.53;;;;;;;;;;5056337;28;20761;-78
2021/09/27 05:07:52;;;;;;;16.33;10.60;;;;;;;;;;5056320;28;20412;-77
2021/09/27 05:10:21;;;;;;;12.47;10.00;;;;;;;;;;5056346;28;20437;-77
2021/09/27 05:12:47;;;;;;;12.97;11.07;;;;;;;;;;5055880;28;20478;-77
2021/09/27 05:15:32;;;;;;;11.37;10.20;;;;;;;;;;5056151;28;20400;-77
2021/09/27 05:18:25;;;;;;;13.57;11.07;;;;;;;;;;5056360;28;20439;-77
2021/09/27 05:20:51;;;;;;;14.80;12.10;;;;;;;;;;5056226;28;20400;-76
2021/09/27 05:23:25;;;;;;;12.73;11.13;;;;;;;;;;5055700;28;20517;-77
2021/09/27 05:26:00;;;;;;;13.70;11.13;;;;;;;;;;5056223;28;20487;-77
2021/09/27 05:28:46;;;;;;;12.97;11.10;;;;;;;;;;5056076;28;20399;-77
2021/09/27 05:31:23;;;;;;;13.40;10.90;;;;;;;;;;5055476;28;20408;-77
2021/09/27 05:34:01;;;;;;;20.63;12.10;;;;;;;;;;5055556;28;20419;-77
2021/09/27 05:36:39;;;;;;;17.07;12.40;;;;;;;;;;5055449;28;20436;-77
2021/09/27 05:39:08;;;;;;;14.90;12.07;;;;;;;;;;5037885;28;20916;-76
2021/09/27 05:41:34;;;;;;;15.57;10.83;;;;;;;;;;5055171;28;20485;-77
2021/09/27 05:44:13;;;;;;;13.30;11.00;;;;;;;;;;5055531;28;20419;-77
2021/09/27 05:46:57;;;;;;;13.57;11.10;;;;;;;;;;5055651;28;20419;-77
2021/09/27 05:49:29;;;;;;;14.60;11.97;;;;;;;;;;5054792;28;20426;-77
2021/09/27 05:52:03;;;;;;;14.07;12.13;;;;;;;;;;5054671;28;20982;-78
2021/09/27 05:54:38;;;;;;;17.00;14.00;;;;;;;;;;5058249;28;20486;-79
2021/09/27 05:57:22;;;;;;;20.70;13.90;;;;;;;;;;5055431;28;20473;-79
2021/09/27 06:00:05;;;;;;;16.00;13.80;;;;;;;;;;5055103;28;20404;-78
2021/09/27 06:02:37;;;;;;;17.00;13.60;;;;;;;;;;5054845;28;20427;-79
2021/09/27 06:05:18;;;;;;;17.37;13.20;;;;;;;;;;5037388;28;20963;-79
2021/09/27 06:07:47;;;;;;;17.80;14.30;;;;;;;;;;5055213;28;20408;-79
2021/09/27 06:10:20;;;;;;;15.30;13.20;;;;;;;;;;5055221;28;20408;-78
2021/09/27 06:12:46;;;;;;;18.87;14.20;;;;;;;;;;5054818;28;20460;-77
2021/09/27 06:15:15;;;;;;;16.97;15.17;;;;;;;;;;5036959;28;20775;-78
2021/09/27 06:17:49;;;;;;;16.53;13.23;;;;;;;;;;5055094;28;20774;-78
2021/09/27 06:20:18;;;;;;;18.83;15.47;;;;;;;;;;5055064;28;20404;-79
2021/09/27 06:22:59;;;;;;;17.93;13.87;;;;;;;;;;5054659;28;20470;-79
2021/09/27 06:25:29;;;;;;;15.17;13.60;;;;;;;;;;5037078;28;20810;-78
2021/09/27 06:28:02;;;;;;;17.50;13.33;;;;;;;;;;5054884;28;20507;-79
2021/09/27 06:30:28;;;;;;;16.13;13.70;;;;;;;;;;5054850;28;20461;-79
2021/09/27 06:32:54;;;;;;;18.63;15.17;;;;;;;;;;5054374;28;20834;-78
2021/09/27 06:35:23;;;;;;;18.07;14.50;;;;;;;;;;5054827;28;20454;-77
2021/09/27 06:37:49;;;;;;;19.70;14.73;;;;;;;;;;5054723;28;20393;-77
2021/09/27 06:40:16;;;;;;;15.87;13.13;;;;;;;;;;5057086;28;20423;-78
2021/09/27 06:42:43;;;;;;;15.43;13.27;;;;;;;;;;5055042;28;20811;-77
2021/09/27 06:45:10;;;;;;;17.70;14.67;;;;;;;;;;5054551;28;20412;-78
2021/09/27 06:47:36;;;;;;;16.33;14.63;;;;;;;;;;5053812;28;20420;-78
2021/09/27 06:50:04;;;;;;;14.97;13.30;;;;;;;;;;5054361;28;20419;-78
2021/09/27 06:52:30;;;;;;;18.13;14.87;;;;;;;;;;5053825;28;20459;-78
2021/09/27 06:54:56;;;;;;;15.83;13.10;;;;;;;;;;5054484;28;20404;-78
2021/09/27 06:57:22;;;;;;;15.87;14.00;;;;;;;;;;5036553;28;20413;-78
2021/09/27 06:59:48;;;;;;;17.40;14.60;;;;;;;;;;5054168;28;20432;-78
2021/09/27 07:02:14;;;;;;;17.57;13.90;;;;;;;;;;5053687;28;20991;-77
2021/09/27 07:04:40;;;;;;;16.70;13.43;;;;;;;;;;5054436;28;20499;-77
2021/09/27 07:07:06;;;;;;;17.20;13.20;;;;;;;;;;5054108;28;20901;-79
2021/09/27 07:09:32;;;;;;;13.83;12.40;;;;;;;;;;5054147;28;20420;-77
2021/09/27 07:11:58;;;;;;;16.43;12.43;;;;;;;;;;5053652;28;20467;-80
2021/09/27 07:14:24;;;;;;;13.93;12.30;;;;;;;;;;5053871;28;20911;-78
2021/09/27 07:16:50;;;;;;;13.50;12.13;;;;;;;;;;5035937;28;20412;-78
2021/09/27 07:19:16;;;;;;;13.00;11.57;;;;;;;;;;5054117;28;20457;-78
2021/09/27 07:21:43;;;;;;;13.80;11.10;;;;;;;;;;5035659;28;20418;-77
2021/09/27 07:24:09;;;;;;;13.13;11.47;;;;;;;;;;5054005;28;20412;-77
2021/09/27 07:26:36;;;;;;;13.03;11.37;;;;;;;;;;5053771;28;20408;-78
2021/09/27 07:29:02;;;;;;;12.87;10.43;;;;;;;;;;5053791;28;20416;-78
2021/09/27 07:31:30;;;;;;;12.37;11.13;;;;;;;;;;5035394;28;20434;-77
2021/09/27 07:33:57;;;;;;;12.60;10.63;;;;;;;;;;5053611;28;20486;-77
2021/09/27 07:36:23;;;;;;;11.30;9.90;;;;;;;;;;5053576;28;20390;-78
2021/09/27 07:38:49;;;;;;;12.60;11.10;;;;;;;;;;5035931;28;20412;-77
2021/09/27 07:41:15;;;;;;;14.03;10.13;;;;;;;;;;5053333;28;20412;-78
2021/09/27 07:43:41;;;;;;;11.53;9.17;;;;;;;;;;5053440;28;20423;-77
2021/09/27 07:46:07;;;;;;;9.93;9.03;;;;;;;;;;5053447;28;20422;-77
2021/09/27 07:48:34;;;;;;;11.77;10.27;;;;;;;;;;5035602;28;20912;-78
2021/09/27 07:51:00;;;;;;;11.17;9.57;;;;;;;;;;5053178;28;20469;-77
2021/09/27 07:53:27;;;;;;;10.77;9.30;;;;;;;;;;5052780;28;20873;-77
2021/09/27 07:55:53;;;;;;;12.70;9.80;;;;;;;;;;5053199;28;20893;-77
2021/09/27 07:58:20;;;;;;;10.90;9.10;;;;;;;;;;5035305;28;20493;-77
2021/09/27 08:00:47;;;;;;;10.63;9.07;;;;;;;;;;5053192;28;20412;-78
2021/09/27 08:03:13;;;;;;;9.73;8.80;;;;;;;;;;5053214;28;20432;-78
2021/09/27 08:05:40;;;;;;;9.97;8.13;;;;;;;;;;5053066;28;20557;-78
2021/09/27 08:08:06;;;;;;;10.47;9.47;;;;;;;;;;5035118;28;20416;-78
2021/09/27 08:10:33;;;;;;;10.67;8.37;;;;;;;;;;5035117;28;20431;-78
2021/09/27 08:12:59;;;;;;;8.07;7.37;;;;;;;;;;5052513;28;20846;-77
2021/09/27 08:15:27;;;;;;;8.90;8.00;;;;;;;;;;5035477;28;20383;-77
2021/09/27 08:17:54;;;;;;;8.63;6.87;;;;;;;;;;5053125;28;20408;-77
2021/09/27 08:20:25;;;;;;;8.00;6.93;;;;;;;;;;5035174;28;20394;-77
2021/09/27 08:22:52;;;;;;;7.97;7.20;;;;;;;;;;5052620;28;20436;-77
2021/09/27 08:25:18;;;;;;;10.53;7.87;;;;;;;;;;5035177;28;20423;-77
2021/09/27 08:27:45;;;;;;;7.40;6.60;;;;;;;;;;5052946;28;20399;-77
2021/09/27 08:30:12;;;;;;;7.93;6.53;;;;;;;;;;5052892;28;20414;-77
2021/09/27 08:32:38;;;;;;;7.27;6.50;;;;;;;;;;5052414;28;20445;-78
2021/09/27 08:35:05;;;;;;;7.33;6.63;;;;;;;;;;5053021;28;20378;-78
2021/09/27 08:37:31;;;;;;;6.50;5.90;;;;;;;;;;5034799;28;20398;-78
2021/09/27 08:39:57;;;;;;;7.80;7.00;;;;;;;;;;5053014;28;20742;-77
2021/09/27 08:42:25;;;;;;;7.90;6.30;;;;;;;;;;5052483;28;20407;-77
2021/09/27 08:45:08;;;;;;;7.80;6.07;;;;;;;;;;5055157;28;20387;-77
2021/09/27 08:47:37;;;;;;;7.47;5.90;;;;;;;;;;5052827;28;20495;-78
2021/09/27 08:50:06;;;;;;;6.13;5.57;;;;;;;;;;5052742;28;20408;-78
2021/09/27 08:52:35;;;;;;;6.77;6.17;;;;;;;;;;5052278;28;21372;-77
2021/09/27 08:55:04;;;;;;;6.27;5.57;;;;;;;;;;5052491;28;20382;-77
2021/09/27 08:57:44;;;;;;;7.50;5.70;;;;;;;;;;5052684;28;20743;-77
2021/09/27 09:00:26;;;;;;;6.63;5.30;;;;;;;;;;5052577;28;20382;-77
2021/09/27 09:02:52;;;;;;;5.47;4.93;;;;;;;;;;5052500;28;20455;-78
2021/09/27 09:05:25;;;;;;;5.50;4.57;;;;;;;;;;5052379;28;20420;-77
2021/09/27 09:07:57;;;;;;;5.10;4.60;;;;;;;;;;5052546;28;20411;-78
2021/09/27 09:10:32;;;;;;;7.00;4.70;;;;;;;;;;5055237;28;20478;-78
2021/09/27 09:13:01;;;;;;;5.60;4.03;;;;;;;;;;5055960;28;20443;-78
2021/09/27 09:15:29;;;;;;;6.87;4.40;;;;;;;;;;5056266;28;20412;-77
2021/09/27 09:17:57;;;;;;;6.00;4.50;;;;;;;;;;5056200;28;20412;-77
2021/09/27 09:20:26;;;;;;;5.17;4.00;;;;;;;;;;5056052;28;20390;-78
2021/09/27 09:22:52;;;;;;;6.10;4.10;;;;;;;;;;5055864;28;20753;-78
2021/09/27 09:25:31;;;;;;;5.10;3.80;;;;;;;;;;5055898;28;20472;-78
2021/09/27 09:27:57;;;;;;;4.93;3.40;;;;;;;;;;5038321;28;20821;-77
2021/09/27 09:30:28;;;;;;;5.33;3.40;;;;;;;;;;5056060;28;20741;-77
2021/09/27 09:32:54;;;;;;;4.50;2.93;;;;;;;;;;5055642;28;20502;-77
2021/09/27 09:35:28;;;;;;;2.93;2.60;;;;;;;;;;5037976;28;20416;-77
2021/09/27 09:38:02;;;;;;;3.10;2.80;;;;;;;;;;5056026;28;20409;-77
2021/09/27 09:40:31;;;;;;;4.03;2.60;;;;;;;;;;5055845;28;20442;-78
2021/09/27 09:43:09;;;;;;;3.37;2.50;;;;;;;;;;5037486;28;20757;-77
2021/09/27 09:45:37;;;;;;;5.57;4.07;;;;;;;;;;5037815;28;20470;-78
2021/09/27 09:48:20;;;;;;;3.80;2.97;;;;;;;;;;5055775;28;20802;-77
2021/09/27 09:50:48;;;;;;;2.53;2.20;;;;;;;;;;5055661;28;20402;-77
2021/09/27 09:53:20;;;;;;;2.70;2.33;;;;;;;;;;5054894;28;20441;-77
2021/09/27 09:56:16;;;;;;;2.73;2.50;;;;;;;;;;5055358;28;20402;-77
2021/09/27 09:59:00;;;;;;;4.40;2.47;;;;;;;;;;5046677;28;20406;-77
2021/09/27 10:01:36;;;;;;;4.10;2.50;;;;;;;;;;5036951;28;20408;-77
2021/09/27 10:04:04;;;;;;;2.30;2.10;;;;;;;;;;5037706;28;20438;-77
2021/09/27 10:06:34;;;;;;;2.80;2.60;;;;;;;;;;5055308;28;20396;-77
2021/09/27 10:09:01;;;;;;;3.57;2.03;;;;;;;;;;5055145;28;20432;-77
2021/09/27 10:11:32;;;;;;;2.00;1.90;;;;;;;;;;5054569;28;20835;-78
2021/09/27 10:13:58;;;;;;;4.43;2.40;;;;;;;;;;5055066;28;20748;-77
2021/09/27 10:16:31;;;;;;;4.23;2.50;;;;;;;;;;5037227;28;20379;-77
2021/09/27 10:19:20;;;;;;;2.33;2.13;;;;;;;;;;5055307;28;20407;-77
2021/09/27 10:21:58;;;;;;;2.43;2.23;;;;;;;;;;5047957;28;20915;-77
2021/09/27 10:24:31;;;;;;;3.03;2.43;;;;;;;;;;5055177;28;20498;-77
2021/09/27 10:27:11;;;;;;;2.10;1.90;;;;;;;;;;5055107;28;20483;-77
2021/09/27 10:29:37;;;;;;;2.77;1.83;;;;;;;;;;5054779;28;20408;-77
2021/09/27 10:32:11;;;;;;;3.13;1.97;;;;;;;;;;5036435;28;20475;-77
2021/09/27 10:34:37;;;;;;;5.03;2.20;;;;;;;;;;5054860;28;20489;-77
2021/09/27 10:37:11;;;;;;;3.57;2.37;;;;;;;;;;5054994;28;20896;-78
2021/09/27 10:39:37;;;;;;;1.90;1.70;;;;;;;;;;5054633;28;20504;-78
2021/09/27 10:42:10;;;;;;;4.60;2.20;;;;;;;;;;5054149;28;20510;-77
2021/09/27 10:44:43;;;;;;;3.50;1.60;;;;;;;;;;5054497;28;20439;-77
2021/09/27 10:47:23;;;;;;;6.50;1.87;;;;;;;;;;5054630;28;20416;-77
2021/09/27 10:49:57;;;;;;;1.90;1.70;;;;;;;;;;5054398;28;20411;-77
2021/09/27 10:52:30;;;;;;;4.33;1.90;;;;;;;;;;5054002;28;20471;-77
2021/09/27 10:55:01;;;;;;;2.33;1.60;;;;;;;;;;5054450;28;20811;-78
2021/09/27 10:57:36;;;;;;;2.30;1.80;;;;;;;;;;5036395;28;20431;-79
2021/09/27 11:00:06;;;;;;;2.43;1.83;;;;;;;;;;5054108;28;20892;-79
2021/09/27 11:02:33;;;;;;;3.40;2.07;;;;;;;;;;5053969;28;20466;-81
2021/09/27 11:05:07;;;;;;;4.00;1.87;;;;;;;;;;5036072;28;20498;-79
2021/09/27 11:07:41;;;;;;;2.00;1.80;;;;;;;;;;5054257;28;20752;-78
2021/09/27 11:10:33;;;;;;;1.70;1.60;;;;;;;;;;5054277;28;20443;-78
2021/09/27 11:12:59;;;;;;;2.13;1.93;;;;;;;;;;5037901;28;20454;-79
2021/09/27 11:15:28;;;;;;;2.10;1.40;;;;;;;;;;5054196;28;20417;-79
2021/09/27 11:18:14;;;;;;;4.00;1.90;;;;;;;;;;5036117;28;20424;-78
2021/09/27 11:20:56;;;;;;;1.67;1.50;;;;;;;;;;5053891;28;20766;-79
2021/09/27 11:23:27;;;;;;;3.00;1.60;;;;;;;;;;5053643;28;20432;-79
2021/09/27 11:26:27;;;;;;;4.33;2.60;;;;;;;;;;5053786;28;20401;-79
2021/09/27 11:29:23;;;;;;;1.90;1.70;;;;;;;;;;5053731;28;20411;-78
2021/09/27 11:32:08;;;;;;;2.83;1.80;;;;;;;;;;5044099;28;21033;-79
2021/09/27 11:34:43;;;;;;;2.23;2.03;;;;;;;;;;5053750;28;20918;-79
2021/09/27 11:37:15;;;;;;;2.40;2.00;;;;;;;;;;5053737;28;20491;-80
2021/09/27 11:39:52;;;;;;;2.33;2.10;;;;;;;;;;5053647;28;20414;-79
2021/09/27 11:42:21;;;;;;;2.67;1.47;;;;;;;;;;5053042;28;20427;-79
2021/09/27 11:45:18;;;;;;;3.03;1.93;;;;;;;;;;5053548;28;20408;-79
2021/09/27 11:48:04;;;;;;;1.73;1.37;;;;;;;;;;5045342;28;20458;-79
2021/09/27 11:50:32;;;;;;;3.90;1.80;;;;;;;;;;5035762;28;20402;-79
2021/09/27 11:53:12;;;;;;;3.80;1.93;;;;;;;;;;5052722;28;20471;-79
2021/09/27 11:55:40;;;;;;;2.73;1.77;;;;;;;;;;5053372;28;20403;-79
2021/09/27 11:58:23;;;;;;;1.67;1.50;;;;;;;;;;5035582;28;20412;-79
2021/09/27 12:00:54;;;;;;;4.23;1.93;;;;;;;;;;5053173;28;20450;-80
2021/09/27 12:03:24;;;;;;;5.83;1.80;;;;;;;;;;5052799;28;20496;-79
2021/09/27 12:05:50;;;;;;;5.20;1.80;;;;;;;;;;5053013;28;20420;-79
2021/09/27 12:08:27;;;;;;;2.20;1.73;;;;;;;;;;5052964;28;20408;-79
2021/09/27 12:11:01;;;;;;;2.00;1.80;;;;;;;;;;5053077;28;20408;-79
2021/09/27 12:13:36;;;;;;;1.60;1.50;;;;;;;;;;5052759;28;20529;-79
2021/09/27 12:16:04;;;;;;;2.73;1.87;;;;;;;;;;5053145;28;20427;-79
2021/09/27 12:18:36;;;;;;;2.00;1.67;;;;;;;;;;5052810;28;20879;-79
2021/09/27 12:21:05;;;;;;;3.13;1.40;;;;;;;;;;5052918;28;20412;-79
2021/09/27 12:23:35;;;;;;;1.90;1.70;;;;;;;;;;5053051;28;20424;-79
2021/09/27 12:26:01;;;;;;;2.97;2.00;;;;;;;;;;5053181;28;20435;-80
2021/09/27 12:28:30;;;;;;;2.20;1.90;;;;;;;;;;5035496;28;20488;-79
2021/09/27 12:30:58;;;;;;;1.83;1.60;;;;;;;;;;5035135;28;20528;-78
2021/09/27 12:33:27;;;;;;;2.07;1.50;;;;;;;;;;5052657;28;20484;-79
2021/09/27 12:36:08;;;;;;;2.90;1.30;;;;;;;;;;5035193;28;20794;-78
2021/09/27 12:38:35;;;;;;;2.00;1.80;;;;;;;;;;5053078;28;20374;-79
2021/09/27 12:41:01;;;;;;;1.60;1.50;;;;;;;;;;5035012;28;20523;-79
2021/09/27 12:43:32;;;;;;;1.63;1.53;;;;;;;;;;5036088;28;20447;-78
2021/09/27 12:46:01;;;;;;;1.50;1.40;;;;;;;;;;5057055;28;20411;-78
2021/09/27 12:48:32;;;;;;;3.57;1.90;;;;;;;;;;5057131;28;20375;-79
2021/09/27 12:51:05;;;;;;;1.60;1.50;;;;;;;;;;5056617;28;20386;-79
2021/09/27 12:53:39;;;;;;;1.63;1.53;;;;;;;;;;5056474;28;20528;-79
2021/09/27 12:56:06;;;;;;;2.10;1.40;;;;;;;;;;5056640;28;20457;-79
2021/09/27 12:58:38;;;;;;;2.43;1.73;;;;;;;;;;5056557;28;20404;-78
2021/09/27 13:01:06;;;;;;;1.87;1.73;;;;;;;;;;5038255;28;20401;-78
2021/09/27 13:03:32;;;;;;;2.33;1.77;;;;;;;;;;5056434;28;20775;-79
2021/09/27 13:06:01;;;;;;;2.23;2.00;;;;;;;;;;5056356;28;20519;-79
2021/09/27 13:08:29;;;;;;;3.10;1.87;;;;;;;;;;5056559;28;20482;-79
2021/09/27 13:10:57;;;;;;;2.10;1.90;;;;;;;;;;5056300;28;20412;-79
2021/09/27 13:13:28;;;;;;;1.90;1.73;;;;;;;;;;5038165;28;20467;-79
2021/09/27 13:16:12;;;;;;;2.43;2.00;;;;;;;;;;5056404;28;20382;-79
2021/09/27 13:18:38;;;;;;;2.23;1.60;;;;;;;;;;5056383;28;20428;-79
2021/09/27 13:21:13;;;;;;;2.30;1.93;;;;;;;;;;5055796;28;20386;-78
2021/09/27 13:23:41;;;;;;;2.70;2.37;;;;;;;;;;5056305;28;20386;-78
2021/09/27 13:26:11;;;;;;;3.07;2.17;;;;;;;;;;5056162;28;20398;-77
2021/09/27 13:28:37;;;;;;;3.20;2.00;;;;;;;;;;5056278;28;20383;-78
2021/09/27 13:31:20;;;;;;;3.37;2.20;;;;;;;;;;5039563;28;20443;-78
2021/09/27 13:33:47;;;;;;;2.90;2.70;;;;;;;;;;5056738;28;20386;-77
2021/09/27 13:36:35;;;;;;;3.27;2.90;;;;;;;;;;5056071;28;20868;-77
2021/09/27 13:39:09;;;;;;;3.67;2.40;;;;;;;;;;5056056;28;20888;-77
2021/09/27 13:42:04;;;;;;;2.63;2.43;;;;;;;;;;5040453;28;20432;-78
2021/09/27 13:44:52;;;;;;;3.00;1.80;;;;;;;;;;5052076;28;20443;-77
2021/09/27 13:47:20;;;;;;;2.30;2.10;;;;;;;;;;5037687;28;20383;-78
2021/09/27 13:49:46;;;;;;;3.43;2.40;;;;;;;;;;5055619;28;20831;-78
2021/09/27 13:52:14;;;;;;;4.50;2.23;;;;;;;;;;5055153;28;20873;-79
2021/09/27 13:54:40;;;;;;;6.17;2.20;;;;;;;;;;5055517;28;20382;-79
2021/09/27 13:57:08;;;;;;;3.70;2.03;;;;;;;;;;5055317;28;20386;-79
2021/09/27 13:59:33;;;;;;;2.83;2.30;;;;;;;;;;5055419;28;20381;-79
2021/09/27 14:02:00;;;;;;;4.03;2.73;;;;;;;;;;5051746;28;20763;-78
2021/09/27 14:04:26;;;;;;;3.23;2.40;;;;;;;;;;5044220;28;20416;-79
2021/09/27 14:06:52;;;;;;;2.30;2.00;;;;;;;;;;5045010;28;20919;-78
2021/09/27 14:09:19;;;;;;;3.80;3.00;;;;;;;;;;5017496;28;20429;-78
2021/09/27 14:11:45;;;;;;;3.00;2.17;;;;;;;;;;5034809;28;20492;-79
2021/09/27 14:14:11;;;;;;;3.27;2.10;;;;;;;;;;5035452;28;20744;-77
2021/09/27 14:16:37;;;;;;;3.73;2.80;;;;;;;;;;5017540;28;20760;-78
2021/09/27 14:19:03;;;;;;;3.10;2.30;;;;;;;;;;5035238;28;20767;-79
2021/09/27 14:21:30;;;;;;;6.10;2.70;;;;;;;;;;5034655;28;20440;-77
2021/09/27 14:23:58;;;;;;;3.43;3.10;;;;;;;;;;5035281;28;20884;-78
2021/09/27 14:26:25;;;;;;;4.67;2.93;;;;;;;;;;5035393;28;20420;-78
2021/09/27 14:28:52;;;;;;;5.77;2.50;;;;;;;;;;5035122;28;20459;-78
2021/09/27 14:31:18;;;;;;;4.80;2.40;;;;;;;;;;5034685;28;20821;-78
2021/09/27 14:33:44;;;;;;;3.03;2.17;;;;;;;;;;5017199;28;20939;-78
2021/09/27 14:36:11;;;;;;;5.70;3.10;;;;;;;;;;5035053;28;20458;-78
2021/09/27 14:38:37;;;;;;;6.57;2.80;;;;;;;;;;5034962;28;20398;-77
2021/09/27 14:41:04;;;;;;;3.23;2.93;;;;;;;;;;5034525;28;20416;-77
2021/09/27 14:43:30;;;;;;;2.83;2.53;;;;;;;;;;5034534;28;20411;-77
2021/09/27 14:45:56;;;;;;;3.87;2.53;;;;;;;;;;5034689;28;20391;-77
2021/09/27 14:48:23;;;;;;;3.80;3.23;;;;;;;;;;5034605;28;20413;-77
2021/09/27 14:50:52;;;;;;;6.27;3.57;;;;;;;;;;5034575;28;20407;-77
2021/09/27 14:53:18;;;;;;;4.00;3.20;;;;;;;;;;5033902;28;20826;-79
2021/09/27 14:55:45;;;;;;;4.87;3.07;;;;;;;;;;5034511;28;20416;-79
2021/09/27 14:58:13;;;;;;;6.53;2.43;;;;;;;;;;5034591;28;20395;-77